Hardaway, Alabama
Current Conditions -  °F | °C
As of 12:53 PM on Thursday 23 Oct 2014 (Local Time) from KTOI Reporting Station
Clear Clear  
Wind Chill: 71°   Ceiling: Unl
Heat Index: 71°   Visibility: 10mi
Dew Point: 43°   Wind: 5mph
Humidity: 36%   Direction: 150°SSE
Pressure: 30.1"   Gusts: NA
Location:  32.29°N, 85.85°W
Report Text: KTOI 231753Z AUTO 15004KT 10SM CLR 22/06 A3010 RMK AO2 SLP189 T02170061 10217 20028 58015
Loading
Personal Weather Stations






























Interactive Weather Map
Tropical Storm Tracking
New forecast layout! Learn more

10-Day Weather Forecast

Advertisements
Track Severe Weather on mobile